Time;durP1;ratioP1;P1;durP2;ratioP2;P2;SDS_P1;SDS_P2;PMS_P1;PMS_P2;Temp;Humidity;BMP_temperature;BMP_pressure;BME280_temperature;BME280_humidity;BME280_pressure;Samples;Min_cycle;Max_cycle;Signal;HPM_P1;HPM_P2
2021/03/28 00:00:50;;;;;;;15.90;7.93;;;;;;;;;;5053712;28;21015;-65
2021/03/28 00:03:18;;;;;;;14.87;8.10;;;;;;;;;;5053544;28;20531;-65
2021/03/28 00:05:45;;;;;;;12.43;8.07;;;;;;;;;;5052596;28;20450;-65
2021/03/28 00:08:18;;;;;;;14.57;8.07;;;;;;;;;;5054095;28;20498;-65
2021/03/28 00:10:46;;;;;;;13.57;7.40;;;;;;;;;;5054037;28;20543;-65
2021/03/28 00:13:15;;;;;;;16.87;8.10;;;;;;;;;;5054030;28;21123;-65
2021/03/28 00:15:45;;;;;;;19.83;8.13;;;;;;;;;;5050153;28;20510;-65
2021/03/28 00:18:22;;;;;;;15.40;8.40;;;;;;;;;;5047154;28;20537;-65
2021/03/28 00:20:50;;;;;;;13.63;7.47;;;;;;;;;;5054821;28;20443;-65
2021/03/28 00:23:24;;;;;;;15.10;7.63;;;;;;;;;;5060341;28;20522;-65
2021/03/28 00:25:54;;;;;;;15.00;7.90;;;;;;;;;;5072364;28;20471;-66
2021/03/28 00:28:24;;;;;;;18.10;7.17;;;;;;;;;;5071763;28;20443;-66
2021/03/28 00:30:52;;;;;;;14.17;7.57;;;;;;;;;;5073501;28;20455;-65
2021/03/28 00:33:21;;;;;;;16.80;7.60;;;;;;;;;;5072283;28;20472;-66
2021/03/28 00:35:51;;;;;;;13.97;7.90;;;;;;;;;;5072934;28;20491;-65
2021/03/28 00:38:20;;;;;;;14.63;7.67;;;;;;;;;;5074151;28;20542;-66
2021/03/28 00:41:01;;;;;;;19.37;7.20;;;;;;;;;;5073975;28;20496;-65
2021/03/28 00:43:30;;;;;;;17.87;7.87;;;;;;;;;;5071829;28;20887;-65
2021/03/28 00:45:58;;;;;;;14.57;8.07;;;;;;;;;;5052996;28;20451;-65
2021/03/28 00:48:26;;;;;;;15.40;7.17;;;;;;;;;;5049435;28;20460;-65
2021/03/28 00:50:56;;;;;;;11.50;7.40;;;;;;;;;;5033381;28;20539;-65
2021/03/28 00:53:40;;;;;;;18.17;7.70;;;;;;;;;;5041932;28;20537;-65
2021/03/28 00:56:10;;;;;;;10.87;7.00;;;;;;;;;;5041372;28;20449;-65
2021/03/28 00:58:50;;;;;;;15.67;7.87;;;;;;;;;;5043097;28;20530;-65
2021/03/28 01:01:23;;;;;;;15.20;7.40;;;;;;;;;;5050261;28;20897;-65
2021/03/28 01:03:58;;;;;;;17.67;7.37;;;;;;;;;;5051825;28;20938;-65
2021/03/28 01:06:29;;;;;;;17.27;7.50;;;;;;;;;;5051051;28;20547;-65
2021/03/28 01:09:01;;;;;;;13.47;6.80;;;;;;;;;;5051886;28;20926;-65
2021/03/28 01:11:46;;;;;;;15.07;7.47;;;;;;;;;;5050288;28;20447;-65
2021/03/28 01:14:43;;;;;;;18.67;8.00;;;;;;;;;;5051210;28;20518;-66
2021/03/28 01:17:31;;;;;;;11.00;6.90;;;;;;;;;;4984820;28;20525;-65
2021/03/28 01:20:24;;;;;;;10.70;6.63;;;;;;;;;;5045351;28;20547;-65
2021/03/28 01:22:56;;;;;;;13.63;6.57;;;;;;;;;;5051194;28;20612;-66
2021/03/28 01:25:41;;;;;;;14.03;7.90;;;;;;;;;;5050133;28;20466;-65
2021/03/28 01:28:15;;;;;;;13.40;7.70;;;;;;;;;;5051149;28;20550;-65
2021/03/28 01:30:44;;;;;;;16.73;8.17;;;;;;;;;;5050996;28;20451;-65
2021/03/28 01:33:15;;;;;;;12.90;8.13;;;;;;;;;;5051012;28;20529;-65
2021/03/28 01:35:49;;;;;;;15.47;7.13;;;;;;;;;;5050463;28;20497;-65
2021/03/28 01:38:20;;;;;;;9.10;6.90;;;;;;;;;;5035516;28;20491;-65
2021/03/28 01:40:49;;;;;;;17.77;9.00;;;;;;;;;;5040351;28;20448;-65
2021/03/28 01:43:21;;;;;;;18.17;7.83;;;;;;;;;;5054779;28;20464;-65
2021/03/28 01:45:51;;;;;;;16.97;8.07;;;;;;;;;;5053671;28;20448;-66
2021/03/28 01:48:27;;;;;;;19.17;8.17;;;;;;;;;;5054618;28;20456;-66
2021/03/28 01:51:01;;;;;;;12.80;7.47;;;;;;;;;;5054377;28;20834;-65
2021/03/28 01:53:37;;;;;;;16.30;7.70;;;;;;;;;;5054073;28;20475;-66
2021/03/28 01:56:07;;;;;;;14.20;7.10;;;;;;;;;;5054264;28;20477;-66
2021/03/28 01:58:40;;;;;;;11.97;6.50;;;;;;;;;;5054819;28;20541;-66
2021/03/28 02:01:09;;;;;;;11.90;6.97;;;;;;;;;;5053538;28;20900;-66
2021/03/28 02:03:40;;;;;;;18.33;8.17;;;;;;;;;;5054564;28;20471;-66
2021/03/28 02:06:12;;;;;;;11.93;7.77;;;;;;;;;;5053859;28;20509;-66
2021/03/28 02:08:51;;;;;;;9.60;6.83;;;;;;;;;;5054293;28;20447;-65
2021/03/28 02:11:29;;;;;;;13.03;6.47;;;;;;;;;;5040524;28;20537;-66
2021/03/28 02:14:04;;;;;;;9.70;7.03;;;;;;;;;;5052780;28;20550;-65
2021/03/28 02:16:33;;;;;;;19.70;7.77;;;;;;;;;;5053895;28;20456;-65
2021/03/28 02:19:09;;;;;;;12.80;7.70;;;;;;;;;;5053895;28;20962;-65
2021/03/28 02:21:54;;;;;;;17.40;7.13;;;;;;;;;;5053862;28;21045;-65
2021/03/28 02:24:23;;;;;;;11.80;6.93;;;;;;;;;;5053473;28;20703;-67
2021/03/28 02:26:52;;;;;;;17.27;7.17;;;;;;;;;;5053802;28;20472;-67
2021/03/28 02:29:23;;;;;;;13.63;7.10;;;;;;;;;;5053439;28;20441;-67
2021/03/28 02:32:01;;;;;;;10.67;6.47;;;;;;;;;;5053731;28;20458;-67
2021/03/28 02:34:30;;;;;;;14.20;7.10;;;;;;;;;;5037298;28;20982;-66
2021/03/28 02:37:04;;;;;;;15.83;7.40;;;;;;;;;;5052825;28;20486;-67
2021/03/28 02:39:38;;;;;;;12.90;6.93;;;;;;;;;;5053224;28;20444;-66
2021/03/28 02:42:09;;;;;;;12.00;6.40;;;;;;;;;;5053060;28;20458;-67
2021/03/28 02:44:47;;;;;;;12.60;7.10;;;;;;;;;;5052847;28;21049;-66
2021/03/28 02:47:18;;;;;;;11.17;7.00;;;;;;;;;;5033338;28;20433;-66
2021/03/28 02:49:55;;;;;;;14.33;6.50;;;;;;;;;;5042095;28;20907;-66
2021/03/28 02:52:31;;;;;;;11.27;6.57;;;;;;;;;;5036019;28;20431;-66
2021/03/28 02:55:12;;;;;;;10.37;7.20;;;;;;;;;;5053306;28;20535;-67
2021/03/28 02:57:45;;;;;;;10.07;6.37;;;;;;;;;;5053352;28;21015;-67
2021/03/28 03:00:20;;;;;;;13.57;6.97;;;;;;;;;;5053062;28;20448;-67
2021/03/28 03:03:02;;;;;;;12.33;6.97;;;;;;;;;;5053614;28;20497;-66
2021/03/28 03:05:41;;;;;;;14.13;7.17;;;;;;;;;;5049548;28;20825;-66
2021/03/28 03:08:11;;;;;;;11.67;7.03;;;;;;;;;;5053434;28;20469;-66
2021/03/28 03:10:53;;;;;;;9.13;5.40;;;;;;;;;;5052579;28;20444;-66
2021/03/28 03:13:28;;;;;;;16.40;6.77;;;;;;;;;;5037326;28;21045;-66
2021/03/28 03:15:59;;;;;;;11.97;6.97;;;;;;;;;;5048006;28;20553;-66
2021/03/28 03:18:45;;;;;;;14.00;6.73;;;;;;;;;;5053040;28;20468;-66
2021/03/28 03:21:22;;;;;;;11.23;6.63;;;;;;;;;;5050271;28;20564;-66
2021/03/28 03:24:07;;;;;;;10.20;6.30;;;;;;;;;;5052482;28;20979;-66
2021/03/28 03:26:48;;;;;;;14.93;6.60;;;;;;;;;;5052336;28;20452;-66
2021/03/28 03:29:25;;;;;;;12.50;6.73;;;;;;;;;;5052958;28;20454;-66
2021/03/28 03:32:06;;;;;;;10.87;6.83;;;;;;;;;;5051785;28;20443;-66
2021/03/28 03:34:49;;;;;;;13.00;6.50;;;;;;;;;;5050479;28;20558;-67
2021/03/28 03:37:39;;;;;;;9.50;5.93;;;;;;;;;;5052159;28;20486;-66
2021/03/28 03:40:25;;;;;;;12.80;7.10;;;;;;;;;;4977888;28;20973;-66
2021/03/28 03:42:59;;;;;;;11.10;6.00;;;;;;;;;;5052255;28;21025;-66
2021/03/28 03:45:42;;;;;;;11.73;6.37;;;;;;;;;;5051647;28;20481;-66
2021/03/28 03:48:14;;;;;;;10.77;5.87;;;;;;;;;;5051892;28;20506;-66
2021/03/28 03:50:56;;;;;;;17.00;6.73;;;;;;;;;;5051986;28;20436;-66
2021/03/28 03:53:31;;;;;;;12.63;6.23;;;;;;;;;;5035717;28;21056;-66
2021/03/28 03:56:03;;;;;;;12.70;6.40;;;;;;;;;;5051195;28;20534;-67
2021/03/28 03:58:31;;;;;;;14.87;6.70;;;;;;;;;;5052120;28;20516;-66
2021/03/28 04:01:01;;;;;;;10.53;6.90;;;;;;;;;;5051818;28;21031;-66
2021/03/28 04:03:32;;;;;;;16.20;6.70;;;;;;;;;;5051943;28;20549;-66
2021/03/28 04:06:06;;;;;;;14.07;6.60;;;;;;;;;;5045394;28;20524;-67
2021/03/28 04:08:53;;;;;;;13.93;7.80;;;;;;;;;;5052136;28;20521;-65
2021/03/28 04:11:27;;;;;;;12.93;8.20;;;;;;;;;;5051359;28;20450;-66
2021/03/28 04:14:12;;;;;;;12.10;7.20;;;;;;;;;;5051967;28;20558;-66
2021/03/28 04:16:45;;;;;;;15.87;7.33;;;;;;;;;;5035931;28;20930;-66
2021/03/28 04:19:27;;;;;;;11.30;6.90;;;;;;;;;;5052162;28;20444;-65
2021/03/28 04:22:06;;;;;;;7.07;6.00;;;;;;;;;;5043498;28;20447;-66
2021/03/28 04:24:39;;;;;;;10.90;6.57;;;;;;;;;;5051608;28;21152;-66
2021/03/28 04:27:15;;;;;;;10.47;6.70;;;;;;;;;;5051412;28;20452;-66
2021/03/28 04:29:44;;;;;;;12.07;6.27;;;;;;;;;;5051545;28;20462;-66
2021/03/28 04:32:18;;;;;;;11.70;6.80;;;;;;;;;;5050877;28;21045;-67
2021/03/28 04:34:53;;;;;;;10.00;6.33;;;;;;;;;;5051991;28;20555;-66
2021/03/28 04:37:24;;;;;;;11.90;6.90;;;;;;;;;;5051423;28;20562;-65
2021/03/28 04:39:58;;;;;;;14.87;7.00;;;;;;;;;;5051187;28;20444;-66
2021/03/28 04:42:34;;;;;;;10.73;7.17;;;;;;;;;;5041531;28;20456;-67
2021/03/28 04:45:16;;;;;;;11.03;6.70;;;;;;;;;;5051258;28;20456;-66
2021/03/28 04:48:07;;;;;;;12.20;6.87;;;;;;;;;;5031640;28;20936;-66
2021/03/28 04:50:52;;;;;;;16.43;7.20;;;;;;;;;;5033059;28;20460;-67
2021/03/28 04:53:39;;;;;;;11.67;6.80;;;;;;;;;;5051489;28;20464;-65
2021/03/28 04:56:14;;;;;;;10.30;7.60;;;;;;;;;;5049615;28;20436;-65
2021/03/28 04:58:56;;;;;;;14.57;7.27;;;;;;;;;;5031750;28;20475;-67
2021/03/28 05:01:31;;;;;;;11.73;6.93;;;;;;;;;;5050710;28;20452;-66
2021/03/28 05:04:15;;;;;;;13.90;7.00;;;;;;;;;;5051410;28;20471;-67
2021/03/28 05:07:00;;;;;;;17.53;6.93;;;;;;;;;;5020056;28;20457;-67
2021/03/28 05:09:45;;;;;;;9.67;7.13;;;;;;;;;;5050910;28;20535;-66
2021/03/28 05:12:35;;;;;;;13.03;6.50;;;;;;;;;;5051185;28;20523;-65
2021/03/28 05:15:22;;;;;;;11.53;6.60;;;;;;;;;;5053151;22;20527;-63
2021/03/28 05:18:09;;;;;;;11.10;6.70;;;;;;;;;;5031344;28;20604;-63
2021/03/28 05:20:51;;;;;;;14.80;7.10;;;;;;;;;;5037629;28;20445;-62
2021/03/28 05:23:36;;;;;;;13.20;6.70;;;;;;;;;;5034764;28;20458;-62
2021/03/28 05:26:21;;;;;;;10.90;7.07;;;;;;;;;;5047012;28;20468;-61
2021/03/28 05:29:05;;;;;;;11.10;7.13;;;;;;;;;;5035180;28;20440;-62
2021/03/28 05:31:45;;;;;;;12.83;7.17;;;;;;;;;;5031098;28;20452;-62
2021/03/28 05:34:33;;;;;;;8.90;6.53;;;;;;;;;;5051484;28;20882;-62
2021/03/28 05:37:12;;;;;;;11.93;7.13;;;;;;;;;;5050536;28;20471;-61
2021/03/28 05:39:57;;;;;;;8.23;6.50;;;;;;;;;;5054241;28;20496;-61
2021/03/28 05:42:44;;;;;;;10.10;6.90;;;;;;;;;;5054589;28;20459;-61
2021/03/28 05:45:29;;;;;;;10.27;5.90;;;;;;;;;;5054027;28;20997;-62
2021/03/28 05:48:11;;;;;;;13.67;6.80;;;;;;;;;;5054230;28;20444;-61
2021/03/28 05:50:41;;;;;;;12.50;6.60;;;;;;;;;;5053381;28;21013;-61
2021/03/28 05:53:40;;;;;;;10.63;6.60;;;;;;;;;;5054940;28;20512;-61
2021/03/28 05:56:31;;;;;;;8.73;6.17;;;;;;;;;;4991768;28;21032;-60
2021/03/28 05:59:14;;;;;;;10.47;6.60;;;;;;;;;;4991946;28;20736;-61
2021/03/28 06:01:49;;;;;;;13.33;6.97;;;;;;;;;;5036325;28;20451;-61
2021/03/28 06:04:49;;;;;;;10.67;6.20;;;;;;;;;;5043862;28;20547;-61
2021/03/28 06:07:42;;;;;;;9.80;3.97;;;;;;;;;;5052936;28;20530;-61
2021/03/28 06:10:26;;;;;;;11.90;3.57;;;;;;;;;;5050118;28;20531;-62
2021/03/28 06:13:07;;;;;;;8.20;3.60;;;;;;;;;;5054623;28;20428;-61
2021/03/28 06:15:47;;;;;;;9.07;3.40;;;;;;;;;;5052978;28;21016;-59
2021/03/28 06:18:38;;;;;;;9.20;3.80;;;;;;;;;;5053485;28;20501;-58
2021/03/28 06:21:19;;;;;;;9.20;3.47;;;;;;;;;;5045508;28;20455;-58
2021/03/28 06:24:01;;;;;;;7.80;2.93;;;;;;;;;;5047759;28;20468;-59
2021/03/28 06:26:43;;;;;;;4.67;3.20;;;;;;;;;;5051934;28;20467;-59
2021/03/28 06:29:34;;;;;;;7.70;3.33;;;;;;;;;;5052411;28;20448;-59
2021/03/28 06:32:18;;;;;;;8.20;3.00;;;;;;;;;;5052240;28;20440;-59
2021/03/28 06:35:13;;;;;;;8.40;4.30;;;;;;;;;;5012927;28;20468;-59
2021/03/28 06:38:01;;;;;;;6.63;3.13;;;;;;;;;;5053735;28;20964;-59
2021/03/28 06:40:39;;;;;;;6.60;3.73;;;;;;;;;;5051601;28;20839;-60
2021/03/28 06:43:23;;;;;;;8.37;3.40;;;;;;;;;;5045961;28;20495;-59
2021/03/28 06:45:59;;;;;;;5.90;3.07;;;;;;;;;;5054825;28;20498;-58
2021/03/28 06:48:37;;;;;;;6.40;3.20;;;;;;;;;;5057461;28;20460;-58
2021/03/28 06:51:27;;;;;;;5.40;3.10;;;;;;;;;;5044311;28;20461;-58
2021/03/28 06:54:12;;;;;;;7.93;3.40;;;;;;;;;;5040037;28;20899;-59
2021/03/28 06:57:03;;;;;;;6.63;3.30;;;;;;;;;;5052159;28;20573;-59
2021/03/28 06:59:40;;;;;;;6.20;3.50;;;;;;;;;;5047677;28;20939;-58
2021/03/28 07:02:16;;;;;;;6.63;3.63;;;;;;;;;;5050956;28;20545;-58
2021/03/28 07:04:51;;;;;;;7.13;3.00;;;;;;;;;;5053758;28;20467;-60
2021/03/28 07:07:29;;;;;;;6.43;3.53;;;;;;;;;;5050226;28;20961;-60
2021/03/28 07:10:24;;;;;;;8.93;4.13;;;;;;;;;;5051790;28;20463;-60
2021/03/28 07:13:09;;;;;;;6.60;3.77;;;;;;;;;;5051244;28;20460;-59
2021/03/28 07:15:42;;;;;;;6.27;3.20;;;;;;;;;;5044223;28;20548;-59
2021/03/28 07:18:31;;;;;;;7.33;3.93;;;;;;;;;;5051517;28;20549;-60
2021/03/28 07:21:11;;;;;;;7.10;3.80;;;;;;;;;;5050161;28;20549;-59
2021/03/28 07:23:52;;;;;;;10.73;3.97;;;;;;;;;;5051016;28;20560;-61
2021/03/28 07:26:33;;;;;;;6.20;3.20;;;;;;;;;;5050501;28;20483;-63
2021/03/28 07:29:14;;;;;;;6.90;4.43;;;;;;;;;;5051832;28;21005;-61
2021/03/28 07:32:06;;;;;;;12.60;6.90;;;;;;;;;;5052452;28;20443;-63
2021/03/28 07:34:54;;;;;;;13.87;7.87;;;;;;;;;;5049665;28;20570;-60
2021/03/28 07:37:37;;;;;;;13.93;6.70;;;;;;;;;;5052407;28;20563;-60
2021/03/28 07:40:22;;;;;;;13.20;8.00;;;;;;;;;;5048326;28;20460;-61
2021/03/28 07:43:03;;;;;;;14.17;8.00;;;;;;;;;;5050225;28;20464;-61
2021/03/28 07:45:46;;;;;;;11.50;7.20;;;;;;;;;;5051254;28;20483;-60
2021/03/28 07:48:33;;;;;;;12.23;7.60;;;;;;;;;;5052604;28;20450;-60
2021/03/28 07:51:30;;;;;;;10.50;7.10;;;;;;;;;;5051714;28;20836;-60
2021/03/28 07:54:17;;;;;;;9.80;7.23;;;;;;;;;;5049937;28;20464;-60
2021/03/28 07:57:19;;;;;;;12.20;7.33;;;;;;;;;;5042739;28;20534;-60
2021/03/28 07:59:54;;;;;;;11.50;6.83;;;;;;;;;;5052245;28;20469;-60
2021/03/28 08:02:30;;;;;;;8.10;7.27;;;;;;;;;;5051338;28;20470;-60
2021/03/28 08:05:14;;;;;;;9.07;7.33;;;;;;;;;;5052303;28;20555;-61
2021/03/28 08:07:52;;;;;;;11.23;7.27;;;;;;;;;;5051685;28;20958;-60
2021/03/28 08:10:37;;;;;;;12.93;7.80;;;;;;;;;;5051862;28;20448;-60
2021/03/28 08:13:18;;;;;;;9.90;6.80;;;;;;;;;;5049576;28;20485;-60
2021/03/28 08:15:52;;;;;;;9.33;6.27;;;;;;;;;;5039953;28;20491;-60
2021/03/28 08:18:33;;;;;;;9.40;7.40;;;;;;;;;;5048169;28;20572;-60
2021/03/28 08:21:04;;;;;;;9.60;6.60;;;;;;;;;;5052239;28;20439;-60
2021/03/28 08:23:44;;;;;;;9.53;7.17;;;;;;;;;;5051056;28;20988;-60
2021/03/28 08:26:25;;;;;;;11.43;6.80;;;;;;;;;;5051317;28;20467;-61
2021/03/28 08:29:06;;;;;;;12.13;6.60;;;;;;;;;;5049763;28;20456;-60
2021/03/28 08:31:37;;;;;;;11.00;6.70;;;;;;;;;;5050780;28;20464;-60
2021/03/28 08:34:22;;;;;;;8.17;5.93;;;;;;;;;;5051666;28;20937;-61
2021/03/28 08:37:02;;;;;;;12.23;6.47;;;;;;;;;;5050942;28;20468;-61
2021/03/28 08:39:37;;;;;;;10.40;5.90;;;;;;;;;;5051571;28;21018;-60
2021/03/28 08:42:13;;;;;;;7.83;5.37;;;;;;;;;;5050785;28;20465;-60
2021/03/28 08:44:51;;;;;;;11.93;5.90;;;;;;;;;;5051619;28;20470;-61
2021/03/28 08:47:24;;;;;;;10.50;6.00;;;;;;;;;;5050273;28;20593;-60
2021/03/28 08:49:55;;;;;;;9.73;5.63;;;;;;;;;;5050555;28;20429;-61
2021/03/28 08:52:33;;;;;;;9.30;6.07;;;;;;;;;;5050505;28;20459;-61
2021/03/28 08:55:03;;;;;;;11.90;6.00;;;;;;;;;;5051761;28;20467;-60
2021/03/28 08:57:39;;;;;;;10.93;6.40;;;;;;;;;;5050543;28;20483;-60
2021/03/28 09:00:33;;;;;;;12.60;6.57;;;;;;;;;;5051464;28;20458;-60
2021/03/28 09:03:14;;;;;;;11.57;6.57;;;;;;;;;;5048052;28;20460;-60
2021/03/28 09:05:44;;;;;;;12.53;6.40;;;;;;;;;;5051089;28;20942;-60
2021/03/28 09:08:14;;;;;;;8.17;5.50;;;;;;;;;;5050533;28;20554;-60
2021/03/28 09:11:17;;;;;;;11.17;6.63;;;;;;;;;;5049389;28;20492;-61
2021/03/28 09:13:49;;;;;;;9.50;6.17;;;;;;;;;;5047189;28;20451;-61
2021/03/28 09:16:22;;;;;;;10.23;5.63;;;;;;;;;;5050836;28;20591;-61
2021/03/28 09:18:55;;;;;;;11.03;6.20;;;;;;;;;;5049213;28;20634;-61
2021/03/28 09:21:28;;;;;;;10.13;6.03;;;;;;;;;;5051541;28;20435;-60
2021/03/28 09:24:03;;;;;;;8.63;5.20;;;;;;;;;;5050782;28;20494;-61
2021/03/28 09:26:33;;;;;;;11.10;6.90;;;;;;;;;;5051128;28;20561;-60
2021/03/28 09:29:11;;;;;;;8.20;5.23;;;;;;;;;;5050925;28;20470;-60
2021/03/28 09:31:45;;;;;;;8.07;5.23;;;;;;;;;;5046019;28;20471;-60
2021/03/28 09:34:24;;;;;;;9.50;5.20;;;;;;;;;;5037627;28;20558;-61
2021/03/28 09:36:57;;;;;;;7.80;4.30;;;;;;;;;;5050405;28;20491;-61
2021/03/28 09:39:36;;;;;;;7.30;4.93;;;;;;;;;;5051215;28;20475;-61
2021/03/28 09:42:33;;;;;;;10.03;4.40;;;;;;;;;;5050431;28;20985;-61
2021/03/28 09:45:17;;;;;;;9.63;4.63;;;;;;;;;;5049384;28;20563;-61
2021/03/28 09:47:53;;;;;;;6.47;3.73;;;;;;;;;;4999365;28;20463;-60
2021/03/28 09:50:24;;;;;;;6.00;3.80;;;;;;;;;;5050145;28;20467;-61
2021/03/28 09:52:55;;;;;;;7.27;3.60;;;;;;;;;;5050371;28;20471;-61
2021/03/28 09:55:33;;;;;;;8.77;4.13;;;;;;;;;;5048600;28;20892;-61
2021/03/28 09:58:17;;;;;;;6.73;4.30;;;;;;;;;;5051929;28;20899;-60
2021/03/28 10:00:51;;;;;;;7.57;4.50;;;;;;;;;;5050452;28;21033;-61
2021/03/28 10:03:22;;;;;;;9.00;5.53;;;;;;;;;;5054132;28;20828;-62
2021/03/28 10:05:50;;;;;;;8.33;4.80;;;;;;;;;;5056096;28;20550;-61
2021/03/28 10:08:18;;;;;;;8.70;5.10;;;;;;;;;;5053545;28;20468;-61
2021/03/28 10:11:00;;;;;;;6.87;4.60;;;;;;;;;;5055010;28;20456;-61
2021/03/28 10:13:41;;;;;;;6.67;4.93;;;;;;;;;;5051399;28;20558;-62
2021/03/28 10:16:15;;;;;;;7.17;5.30;;;;;;;;;;5032118;28;20486;-60
2021/03/28 10:18:52;;;;;;;5.90;4.33;;;;;;;;;;5054682;28;20471;-61
2021/03/28 10:21:33;;;;;;;9.33;4.87;;;;;;;;;;5054830;28;20450;-61
2021/03/28 10:24:08;;;;;;;8.30;4.70;;;;;;;;;;5049883;28;20547;-61
2021/03/28 10:26:53;;;;;;;8.93;4.70;;;;;;;;;;5053499;28;20462;-61
2021/03/28 10:29:41;;;;;;;7.80;4.90;;;;;;;;;;5053085;28;20523;-61
2021/03/28 10:32:15;;;;;;;6.10;4.60;;;;;;;;;;5033969;28;20445;-61
2021/03/28 10:34:58;;;;;;;6.13;4.40;;;;;;;;;;5052698;28;20478;-61
2021/03/28 10:37:39;;;;;;;7.00;4.87;;;;;;;;;;5053423;28;21028;-61
2021/03/28 10:40:10;;;;;;;7.97;4.97;;;;;;;;;;5053072;28;20546;-61
2021/03/28 10:42:43;;;;;;;8.03;4.40;;;;;;;;;;5052713;28;20993;-61
2021/03/28 10:45:28;;;;;;;7.87;4.63;;;;;;;;;;5036234;28;20591;-60
2021/03/28 10:48:10;;;;;;;8.53;4.80;;;;;;;;;;5040787;28;20957;-61
2021/03/28 10:51:07;;;;;;;8.10;5.10;;;;;;;;;;5053877;28;20809;-61
2021/03/28 10:53:54;;;;;;;6.77;4.40;;;;;;;;;;4950562;29;20460;-62
2021/03/28 10:56:48;;;;;;;6.23;4.47;;;;;;;;;;5020917;28;20486;-61
2021/03/28 10:59:32;;;;;;;9.73;5.20;;;;;;;;;;5052819;28;20487;-61
2021/03/28 11:02:12;;;;;;;9.07;4.70;;;;;;;;;;5053864;28;20435;-60
2021/03/28 11:04:48;;;;;;;7.53;4.63;;;;;;;;;;5053509;28;20467;-61
2021/03/28 11:07:23;;;;;;;7.27;4.53;;;;;;;;;;5053169;28;20542;-61
2021/03/28 11:10:14;;;;;;;6.37;4.50;;;;;;;;;;5048577;28;20868;-61
2021/03/28 11:13:02;;;;;;;5.40;4.70;;;;;;;;;;5051634;28;20463;-61
2021/03/28 11:15:32;;;;;;;10.23;5.07;;;;;;;;;;5083514;22;20501;-66
2021/03/28 11:18:23;;;;;;;7.77;4.20;;;;;;;;;;5037282;28;20487;-66
2021/03/28 11:20:58;;;;;;;6.67;4.87;;;;;;;;;;5042663;28;20523;-66
2021/03/28 11:23:39;;;;;;;9.40;4.60;;;;;;;;;;5039139;28;20543;-68
2021/03/28 11:26:23;;;;;;;7.50;4.27;;;;;;;;;;5032173;28;20480;-67
2021/03/28 11:28:58;;;;;;;8.13;4.67;;;;;;;;;;5033841;28;20475;-67
2021/03/28 11:31:38;;;;;;;6.20;4.83;;;;;;;;;;5031130;28;21160;-67
2021/03/28 11:34:16;;;;;;;5.83;4.57;;;;;;;;;;5032159;28;20874;-66
2021/03/28 11:36:54;;;;;;;7.37;4.57;;;;;;;;;;5031681;28;20567;-66
2021/03/28 11:39:22;;;;;;;8.90;4.90;;;;;;;;;;5033633;28;20487;-66
2021/03/28 11:41:50;;;;;;;8.60;4.70;;;;;;;;;;5029899;28;21051;-66
2021/03/28 11:44:20;;;;;;;7.87;5.13;;;;;;;;;;5031298;28;20468;-66
2021/03/28 11:46:52;;;;;;;5.83;5.23;;;;;;;;;;5031246;28;20580;-66
2021/03/28 11:49:19;;;;;;;7.50;5.10;;;;;;;;;;5032484;28;20448;-66
2021/03/28 11:52:10;;;;;;;7.00;5.27;;;;;;;;;;5031720;28;20543;-66
2021/03/28 11:54:36;;;;;;;6.60;4.40;;;;;;;;;;5032522;28;20599;-65
2021/03/28 11:57:15;;;;;;;8.10;4.97;;;;;;;;;;5031026;28;20480;-66
2021/03/28 11:59:43;;;;;;;9.33;4.70;;;;;;;;;;5032588;28;20435;-65
2021/03/28 12:02:28;;;;;;;11.30;5.00;;;;;;;;;;5030332;28;20464;-65
2021/03/28 12:05:13;;;;;;;7.60;4.97;;;;;;;;;;5031687;28;20510;-65
2021/03/28 12:07:42;;;;;;;7.63;4.77;;;;;;;;;;5031837;28;20526;-66
2021/03/28 12:10:17;;;;;;;7.83;4.87;;;;;;;;;;5031686;28;20460;-65
2021/03/28 12:12:59;;;;;;;8.37;4.97;;;;;;;;;;5031373;28;20460;-65
2021/03/28 12:15:44;;;;;;;5.60;4.27;;;;;;;;;;5029062;28;20839;-65
2021/03/28 12:18:23;;;;;;;7.13;4.50;;;;;;;;;;5030797;28;20476;-65
2021/03/28 12:21:11;;;;;;;6.57;3.90;;;;;;;;;;5031986;28;20428;-65
2021/03/28 12:23:41;;;;;;;9.30;5.13;;;;;;;;;;5031183;28;20467;-65
2021/03/28 12:26:09;;;;;;;6.63;4.63;;;;;;;;;;5032038;28;20609;-65
2021/03/28 12:28:48;;;;;;;6.77;4.63;;;;;;;;;;5031413;28;20471;-65
2021/03/28 12:31:31;;;;;;;7.47;4.60;;;;;;;;;;5025492;28;20465;-65
2021/03/28 12:34:05;;;;;;;6.53;4.07;;;;;;;;;;5031097;28;20500;-65
2021/03/28 12:36:46;;;;;;;6.27;4.30;;;;;;;;;;5031387;28;20472;-65
2021/03/28 12:39:15;;;;;;;8.00;4.87;;;;;;;;;;5031869;28;20488;-65
2021/03/28 12:42:02;;;;;;;8.10;4.17;;;;;;;;;;5034037;28;20484;-66
2021/03/28 12:44:35;;;;;;;9.27;4.90;;;;;;;;;;5029543;28;21026;-65
2021/03/28 12:47:06;;;;;;;9.93;4.57;;;;;;;;;;5031195;28;20838;-65
2021/03/28 12:49:43;;;;;;;8.30;4.60;;;;;;;;;;5029748;28;20464;-65
2021/03/28 12:52:22;;;;;;;6.53;4.10;;;;;;;;;;5031818;28;20490;-65
2021/03/28 12:55:04;;;;;;;6.93;4.93;;;;;;;;;;5031156;28;20475;-65
2021/03/28 12:57:32;;;;;;;8.60;5.03;;;;;;;;;;5030776;28;20444;-65
2021/03/28 13:00:01;;;;;;;9.43;5.27;;;;;;;;;;5030015;28;20460;-65
2021/03/28 13:02:29;;;;;;;5.80;5.17;;;;;;;;;;5030977;28;20849;-67
2021/03/28 13:04:59;;;;;;;9.90;5.63;;;;;;;;;;5031339;28;20539;-66
2021/03/28 13:07:37;;;;;;;9.43;5.80;;;;;;;;;;5029700;28;20595;-67
2021/03/28 13:10:06;;;;;;;8.40;5.70;;;;;;;;;;5031544;28;20441;-66
2021/03/28 13:12:34;;;;;;;10.07;5.83;;;;;;;;;;5030565;28;20465;-66
2021/03/28 13:15:12;;;;;;;7.70;5.50;;;;;;;;;;5030916;28;20826;-66
2021/03/28 13:17:40;;;;;;;9.63;5.87;;;;;;;;;;5030943;28;20464;-67
2021/03/28 13:20:31;;;;;;;8.43;5.73;;;;;;;;;;5032138;28;20448;-66
2021/03/28 13:23:06;;;;;;;7.67;6.60;;;;;;;;;;5010300;28;20464;-66
2021/03/28 13:25:33;;;;;;;10.03;6.30;;;;;;;;;;5029361;28;20844;-66
2021/03/28 13:28:21;;;;;;;10.27;6.20;;;;;;;;;;5029464;28;20480;-66
2021/03/28 13:30:49;;;;;;;8.43;6.03;;;;;;;;;;5030301;28;20843;-67
2021/03/28 13:33:32;;;;;;;8.97;6.60;;;;;;;;;;5030238;28;20949;-67
2021/03/28 13:35:59;;;;;;;9.93;6.90;;;;;;;;;;5031384;28;20575;-66
2021/03/28 13:38:29;;;;;;;8.43;6.33;;;;;;;;;;5030165;28;20507;-66
2021/03/28 13:40:56;;;;;;;10.43;6.80;;;;;;;;;;5035519;28;20437;-66
2021/03/28 13:43:25;;;;;;;8.13;6.90;;;;;;;;;;5030140;28;20463;-67
2021/03/28 13:45:54;;;;;;;12.03;7.30;;;;;;;;;;5033668;28;20495;-66
2021/03/28 13:48:25;;;;;;;9.43;6.83;;;;;;;;;;5033701;28;20455;-66
2021/03/28 13:50:54;;;;;;;9.00;6.50;;;;;;;;;;5034922;28;20507;-66
2021/03/28 13:53:23;;;;;;;8.30;7.10;;;;;;;;;;5030635;28;20468;-66
2021/03/28 13:55:52;;;;;;;10.07;7.30;;;;;;;;;;5034307;28;20563;-66
2021/03/28 13:58:22;;;;;;;8.90;7.90;;;;;;;;;;5033465;28;20995;-67
2021/03/28 14:00:50;;;;;;;10.47;7.17;;;;;;;;;;5034462;28;20447;-66
2021/03/28 14:03:19;;;;;;;9.83;7.47;;;;;;;;;;5033519;28;20985;-66
2021/03/28 14:05:47;;;;;;;8.13;7.30;;;;;;;;;;5033447;28;20970;-66
2021/03/28 14:08:16;;;;;;;10.27;7.87;;;;;;;;;;5034108;28;20452;-66
2021/03/28 14:10:51;;;;;;;7.83;7.03;;;;;;;;;;5033738;28;20540;-65
2021/03/28 14:13:21;;;;;;;8.23;7.43;;;;;;;;;;5033994;28;20433;-67
2021/03/28 14:15:48;;;;;;;10.20;7.50;;;;;;;;;;5033716;28;20563;-67
2021/03/28 14:18:23;;;;;;;7.90;7.10;;;;;;;;;;5033408;28;20487;-66
2021/03/28 14:20:51;;;;;;;11.40;7.90;;;;;;;;;;5032528;28;20496;-66
2021/03/28 14:23:22;;;;;;;10.40;7.13;;;;;;;;;;5033773;28;21130;-66
2021/03/28 14:25:50;;;;;;;8.87;6.90;;;;;;;;;;5033151;28;20473;-66
2021/03/28 14:28:33;;;;;;;8.70;7.53;;;;;;;;;;5033724;28;20847;-66
2021/03/28 14:31:00;;;;;;;11.87;7.97;;;;;;;;;;5033426;28;20543;-66
2021/03/28 14:33:42;;;;;;;8.43;7.70;;;;;;;;;;5031594;28;20952;-66
2021/03/28 14:36:16;;;;;;;13.73;7.87;;;;;;;;;;5032668;28;20575;-66
2021/03/28 14:38:54;;;;;;;10.53;8.10;;;;;;;;;;5033404;28;21093;-66
2021/03/28 14:41:25;;;;;;;14.73;8.57;;;;;;;;;;5033778;28;20528;-66
2021/03/28 14:44:06;;;;;;;11.47;8.70;;;;;;;;;;5032808;28;20556;-67
2021/03/28 14:46:44;;;;;;;9.17;7.70;;;;;;;;;;5033018;28;20509;-66
2021/03/28 14:49:18;;;;;;;8.93;8.13;;;;;;;;;;5032937;28;20445;-66
2021/03/28 14:51:47;;;;;;;11.33;8.50;;;;;;;;;;5033265;28;20974;-67
2021/03/28 14:54:19;;;;;;;10.77;8.37;;;;;;;;;;5032004;28;20978;-66
2021/03/28 14:56:50;;;;;;;9.97;8.20;;;;;;;;;;5032243;28;20864;-66
2021/03/28 14:59:22;;;;;;;9.27;8.37;;;;;;;;;;5031993;28;20481;-67
2021/03/28 15:01:52;;;;;;;9.47;8.13;;;;;;;;;;5023915;28;20455;-67
2021/03/28 15:04:38;;;;;;;9.47;8.60;;;;;;;;;;5033125;28;20467;-67
2021/03/28 15:07:24;;;;;;;9.63;8.60;;;;;;;;;;5033185;28;20464;-67
2021/03/28 15:09:54;;;;;;;9.77;8.80;;;;;;;;;;5033339;28;20497;-67
2021/03/28 15:12:24;;;;;;;9.53;8.60;;;;;;;;;;5033183;28;20499;-67
2021/03/28 15:14:55;;;;;;;11.67;8.57;;;;;;;;;;5026366;28;20544;-66
2021/03/28 15:17:30;;;;;;;10.87;8.70;;;;;;;;;;5015953;28;20887;-67
2021/03/28 15:20:02;;;;;;;12.40;10.23;;;;;;;;;;5019362;28;20465;-67
2021/03/28 15:22:32;;;;;;;9.20;8.30;;;;;;;;;;5018459;28;20915;-66
2021/03/28 15:25:00;;;;;;;10.07;8.97;;;;;;;;;;5021219;28;20450;-67
2021/03/28 15:27:31;;;;;;;11.67;9.57;;;;;;;;;;5017190;28;20544;-67
2021/03/28 15:30:00;;;;;;;9.40;8.47;;;;;;;;;;5033479;28;20439;-67
2021/03/28 15:32:48;;;;;;;11.30;8.40;;;;;;;;;;5032648;28;20467;-66
2021/03/28 15:35:21;;;;;;;11.27;9.13;;;;;;;;;;5030750;28;20484;-67